createdAt,value
2022-08-11T00:01:52.393Z,101564.16
2022-08-11T00:04:40.153Z,101563.41
2022-08-11T00:07:28.462Z,101552.75
2022-08-11T00:10:20.233Z,101555.97
2022-08-11T00:13:08.274Z,101553.91
2022-08-11T00:16:01.490Z,101553.25
2022-08-11T00:18:52.255Z,101554.19
2022-08-11T00:22:04.290Z,101555.16
2022-08-11T00:24:52.626Z,101550.97
2022-08-11T00:27:42.898Z,101552.00
2022-08-11T00:30:39.506Z,101546.72
2022-08-11T00:33:44.073Z,101548.16
2022-08-11T00:36:46.033Z,101554.34
2022-08-11T00:39:36.435Z,101551.84
2022-08-11T00:43:01.956Z,101540.63
2022-08-11T00:46:18.118Z,101551.84
2022-08-11T00:49:37.049Z,101540.84
2022-08-11T00:52:40.586Z,101546.28
2022-08-11T00:55:56.150Z,101546.06
2022-08-11T00:59:21.201Z,101545.53
2022-08-11T01:02:43.057Z,101550.66
2022-08-11T01:05:48.845Z,101554.63
2022-08-11T01:08:58.199Z,101552.78
2022-08-11T01:11:56.461Z,101545.75
2022-08-11T01:14:58.636Z,101541.03
2022-08-11T01:18:32.663Z,101545.28
2022-08-11T01:21:38.156Z,101549.03
2022-08-11T01:24:50.174Z,101548.84
2022-08-11T01:27:59.158Z,101555.41
2022-08-11T01:31:23.824Z,101552.22
2022-08-11T01:34:35.325Z,101548.63
2022-08-11T01:37:57.740Z,101547.59
2022-08-11T01:40:53.765Z,101552.25
2022-08-11T01:44:30.617Z,101548.09
2022-08-11T01:47:53.275Z,101554.00
2022-08-11T01:51:17.294Z,101545.75
2022-08-11T01:54:13.179Z,101535.00
2022-08-11T01:57:35.246Z,101548.41
2022-08-11T02:00:31.339Z,101551.59
2022-08-11T02:03:39.104Z,101559.06
2022-08-11T02:06:56.848Z,101562.19
2022-08-11T02:10:22.697Z,101556.69
2022-08-11T02:13:44.868Z,101555.41
2022-08-11T02:17:06.649Z,101556.25
2022-08-11T02:20:31.456Z,101554.16
2022-08-11T02:24:05.835Z,101555.16
2022-08-11T02:26:53.536Z,101547.22
2022-08-11T02:30:04.957Z,101545.13
2022-08-11T02:33:24.812Z,101557.97
2022-08-11T02:36:21.738Z,101550.63
2022-08-11T02:39:12.964Z,101541.84
2022-08-11T02:42:37.748Z,101542.16
2022-08-11T02:45:54.724Z,101543.47
2022-08-11T02:49:11.313Z,101545.13
2022-08-11T02:52:25.869Z,101548.69
2022-08-11T02:55:56.884Z,101549.53
2022-08-11T02:59:22.914Z,101549.22
2022-08-11T03:02:23.399Z,101547.53
2022-08-11T03:05:20.967Z,101551.78
2022-08-11T03:08:23.933Z,101561.25
2022-08-11T03:11:56.017Z,101548.88
2022-08-11T03:15:09.730Z,101544.00
2022-08-11T03:18:11.937Z,101547.69
2022-08-11T03:21:09.306Z,101550.88
2022-08-11T03:24:10.954Z,101539.31
2022-08-11T03:27:04.006Z,101542.69
2022-08-11T03:30:11.562Z,101545.25
2022-08-11T03:33:40.172Z,101545.22
2022-08-11T03:37:15.693Z,101538.53
2022-08-11T03:40:03.289Z,101539.16
2022-08-11T03:43:00.896Z,101544.34
2022-08-11T03:46:12.938Z,101543.63
2022-08-11T03:49:23.177Z,101538.59
2022-08-11T03:52:48.992Z,101543.38
2022-08-11T03:56:13.808Z,101544.91
2022-08-11T03:59:17.527Z,101547.50
2022-08-11T04:02:42.110Z,101538.19
2022-08-11T04:05:35.399Z,101543.00
2022-08-11T04:08:50.849Z,101553.84
2022-08-11T04:12:35.439Z,101552.13
2022-08-11T04:16:11.609Z,101550.03
2022-08-11T04:19:05.886Z,101545.03
2022-08-11T04:22:28.889Z,101548.81
2022-08-11T04:25:27.887Z,101548.56
2022-08-11T04:28:43.106Z,101549.81
2022-08-11T04:32:16.436Z,101549.59
2022-08-11T04:35:28.401Z,101552.63
2022-08-11T04:38:37.592Z,101556.00
2022-08-11T04:42:18.874Z,101562.31
2022-08-11T04:45:26.198Z,101551.31
2022-08-11T04:49:11.447Z,101561.84
2022-08-11T04:52:55.759Z,101567.25
2022-08-11T04:56:19.750Z,101563.66
2022-08-11T05:00:01.636Z,101572.22
2022-08-11T05:03:12.859Z,101565.97
2022-08-11T05:06:34.217Z,101566.81
2022-08-11T05:09:45.330Z,101570.13
2022-08-11T05:12:48.438Z,101568.41
2022-08-11T05:16:05.778Z,101575.97
2022-08-11T05:19:12.626Z,101575.69
2022-08-11T05:22:34.274Z,101572.47
2022-08-11T05:26:42.806Z,101576.78
2022-08-11T05:29:21.505Z,101580.13
2022-08-11T05:32:32.168Z,101582.34
2022-08-11T05:36:00.413Z,101577.53
2022-08-11T05:38:55.389Z,101575.28
2022-08-11T05:42:01.512Z,101589.38
2022-08-11T05:45:15.343Z,101584.06
2022-08-11T05:48:22.849Z,101588.78
2022-08-11T05:51:30.212Z,101593.19
2022-08-11T05:54:36.859Z,101591.94
2022-08-11T05:57:38.615Z,101594.75
2022-08-11T06:00:43.459Z,101598.53
2022-08-11T06:03:58.441Z,101598.53
2022-08-11T06:07:01.345Z,101597.81
2022-08-11T06:09:51.213Z,101593.91
2022-08-11T06:12:40.752Z,101591.56
2022-08-11T06:15:29.702Z,101598.66
2022-08-11T06:18:18.350Z,101597.59
2022-08-11T06:21:09.983Z,101594.16
2022-08-11T06:23:59.061Z,101599.78
2022-08-11T06:29:59.862Z,101593.75
2022-08-11T06:32:55.398Z,101584.19
2022-08-11T06:36:03.263Z,101594.50
2022-08-11T06:39:21.870Z,101602.50
2022-08-11T06:42:13.922Z,101590.91
2022-08-11T06:45:08.252Z,101600.97
2022-08-11T06:48:00.664Z,101597.53
2022-08-11T06:51:11.283Z,101602.09
2022-08-11T06:54:04.364Z,101593.63
2022-08-11T06:57:29.254Z,101596.13
2022-08-11T07:00:33.148Z,101591.47
2022-08-11T07:03:22.223Z,101605.03
2022-08-11T07:06:29.102Z,101592.03
2022-08-11T07:10:12.425Z,101593.47
2022-08-11T07:13:44.064Z,101600.78
2022-08-11T07:16:30.886Z,101594.81
2022-08-11T07:19:45.360Z,101591.81
2022-08-11T07:22:52.197Z,101589.94
2022-08-11T07:26:01.658Z,101591.47
2022-08-11T07:28:55.243Z,101593.19
2022-08-11T07:31:50.055Z,101600.22
2022-08-11T07:34:42.914Z,101591.03
2022-08-11T07:37:33.257Z,101588.53
2022-08-11T07:40:24.644Z,101584.22
2022-08-11T07:43:14.008Z,101578.00
2022-08-11T07:46:23.161Z,101577.03
2022-08-11T07:49:29.756Z,101577.16
2022-08-11T07:52:30.301Z,101578.69
2022-08-11T07:55:18.412Z,101572.09
2022-08-11T07:58:25.589Z,101568.59
2022-08-11T08:01:44.466Z,101571.09
2022-08-11T08:04:51.825Z,101571.97
2022-08-11T08:07:57.795Z,101570.38
2022-08-11T08:11:04.390Z,101571.22
2022-08-11T08:14:12.517Z,101576.72
2022-08-11T08:17:18.554Z,101568.41
2022-08-11T08:20:10.094Z,101573.75
2022-08-11T08:23:00.624Z,101579.47
2022-08-11T08:25:51.498Z,101574.63
2022-08-11T08:28:39.605Z,101572.28
2022-08-11T08:31:27.432Z,101575.16
2022-08-11T08:34:16.369Z,101562.81
2022-08-11T08:37:15.688Z,101573.84
2022-08-11T08:40:15.209Z,101577.97
2022-08-11T08:43:12.084Z,101575.72
2022-08-11T08:46:00.024Z,101572.78
2022-08-11T08:48:49.277Z,101579.47
2022-08-11T08:51:54.850Z,101568.88
2022-08-11T08:54:54.073Z,101576.53
2022-08-11T08:57:44.853Z,101577.72
2022-08-11T09:00:44.789Z,101576.38
2022-08-11T09:04:04.180Z,101566.88
2022-08-11T09:06:47.465Z,101584.34
2022-08-11T09:09:43.318Z,101577.97
2022-08-11T09:12:36.419Z,101574.19
2022-08-11T09:15:28.293Z,101577.63
2022-08-11T09:18:17.916Z,101579.28
2022-08-11T09:21:05.622Z,101575.25
2022-08-11T09:24:28.781Z,101577.13
2022-08-11T09:27:16.277Z,101570.75
2022-08-11T09:30:05.290Z,101566.38
2022-08-11T09:33:00.385Z,101579.38
2022-08-11T09:35:51.211Z,101570.72
2022-08-11T09:38:57.619Z,101568.50
2022-08-11T09:42:01.217Z,101567.34
2022-08-11T09:44:53.134Z,101569.66
2022-08-11T09:47:43.229Z,101566.97
2022-08-11T09:50:32.788Z,101564.72
2022-08-11T09:53:36.680Z,101567.22
2022-08-11T09:56:44.352Z,101553.13
2022-08-11T09:59:32.644Z,101551.09
2022-08-11T10:02:27.833Z,101552.31
2022-08-11T10:05:38.016Z,101545.22
2022-08-11T10:08:30.389Z,101546.13
2022-08-11T10:11:23.231Z,101528.72
2022-08-11T10:14:33.947Z,101537.91
2022-08-11T10:17:23.397Z,101537.00
2022-08-11T10:20:12.614Z,101516.50
2022-08-11T10:23:19.928Z,101528.78
2022-08-11T10:26:26.688Z,101528.53
2022-08-11T10:29:37.433Z,101512.19
2022-08-11T10:32:58.351Z,101513.53
2022-08-11T10:35:47.337Z,101504.69
2022-08-11T10:38:35.803Z,101512.25
2022-08-11T10:42:06.806Z,101506.16
2022-08-11T10:44:53.191Z,101500.38
2022-08-11T10:47:44.449Z,101498.47
2022-08-11T10:50:56.654Z,101494.28
2022-08-11T10:54:12.310Z,101443.72
2022-08-11T10:57:19.221Z,101497.19
2022-08-11T11:00:07.492Z,101494.19
2022-08-11T11:03:22.437Z,101485.06
2022-08-11T11:06:28.430Z,101481.16
2022-08-11T11:09:29.841Z,101474.50
2022-08-11T11:12:57.540Z,101465.06
2022-08-11T11:16:06.350Z,101469.03
2022-08-11T11:19:00.782Z,101472.97
2022-08-11T11:21:53.580Z,101463.50
2022-08-11T11:24:54.750Z,101461.03
2022-08-11T11:27:56.048Z,101451.88
2022-08-11T11:31:31.150Z,101458.81
2022-08-11T11:34:22.005Z,101450.19
2022-08-11T11:37:13.150Z,101445.75
2022-08-11T11:40:01.026Z,101441.88
2022-08-11T11:42:51.693Z,101440.78
2022-08-11T11:45:41.988Z,101434.09
2022-08-11T11:48:30.594Z,101435.25
2022-08-11T11:51:18.426Z,101428.28
2022-08-11T11:54:06.652Z,101428.88
2022-08-11T11:57:20.017Z,101435.25
2022-08-11T12:00:32.885Z,101426.91
2022-08-11T12:03:21.949Z,101425.25
2022-08-11T12:06:14.093Z,101412.50
2022-08-11T12:09:01.528Z,101421.91
2022-08-11T12:12:08.398Z,101414.13
2022-08-11T12:14:56.152Z,101406.63
2022-08-11T12:17:43.552Z,101395.22
2022-08-11T12:20:33.883Z,101395.22
2022-08-11T12:23:40.294Z,101389.88
2022-08-11T12:26:47.445Z,101398.41
2022-08-11T12:29:58.175Z,101392.81
2022-08-11T12:32:45.942Z,101375.63
2022-08-11T12:35:35.159Z,101377.03
2022-08-11T12:38:29.741Z,101378.97
2022-08-11T12:41:36.615Z,101367.50
2022-08-11T12:44:46.674Z,101374.38
2022-08-11T12:48:49.667Z,101355.97
2022-08-11T12:52:00.886Z,101368.53
2022-08-11T12:54:54.319Z,101360.09
2022-08-11T12:58:06.920Z,101348.69
2022-08-11T13:01:13.230Z,101342.47
2022-08-11T13:04:21.814Z,101342.56
2022-08-11T13:07:10.224Z,101356.72
2022-08-11T13:09:57.760Z,101343.63
2022-08-11T13:12:47.917Z,101351.09
2022-08-11T13:15:38.931Z,101347.19
2022-08-11T13:18:27.642Z,101350.56
2022-08-11T13:21:20.326Z,101353.25
2022-08-11T13:24:08.539Z,101341.34
2022-08-11T13:26:57.965Z,101339.34
2022-08-11T13:29:46.877Z,101325.34
2022-08-11T13:32:34.726Z,101330.44
2022-08-11T13:35:23.431Z,101324.84
2022-08-11T13:38:27.067Z,101319.25
2022-08-11T13:41:34.239Z,101316.88
2022-08-11T13:44:25.876Z,101316.25
2022-08-11T13:47:15.345Z,101320.63
2022-08-11T13:50:02.754Z,101315.47
2022-08-11T13:52:53.319Z,101319.31
2022-08-11T13:55:52.239Z,101314.84
2022-08-11T13:58:41.096Z,101305.38
2022-08-11T14:02:20.482Z,101308.94
2022-08-11T14:04:56.135Z,101298.25
2022-08-11T14:07:58.994Z,101298.63
2022-08-11T14:12:19.800Z,101295.75
2022-08-11T14:14:23.357Z,101283.91
2022-08-11T14:17:12.288Z,101290.03
2022-08-11T14:20:38.575Z,101279.19
2022-08-11T14:23:33.686Z,101280.47
2022-08-11T14:26:29.132Z,101275.50
2022-08-11T14:32:10.293Z,101267.53
2022-08-11T14:34:58.669Z,101269.25
2022-08-11T14:37:46.975Z,101262.56
2022-08-11T14:40:53.328Z,101268.88
2022-08-11T14:44:13.301Z,101255.59
2022-08-11T14:47:05.778Z,101259.72
2022-08-11T14:50:17.868Z,101260.00
2022-08-11T14:53:14.241Z,101246.19
2022-08-11T14:56:25.360Z,101251.72
2022-08-11T14:59:13.264Z,101243.09
2022-08-11T15:02:21.357Z,101248.34
2022-08-11T15:05:09.071Z,101243.13
2022-08-11T15:07:58.349Z,101235.19
2022-08-11T15:10:48.135Z,101234.97
2022-08-11T15:13:36.369Z,101241.84
2022-08-11T15:16:43.462Z,101238.66
2022-08-11T15:19:36.665Z,101233.50
2022-08-11T15:22:47.682Z,101229.06
2022-08-11T15:25:35.681Z,101228.03
2022-08-11T15:28:43.520Z,101225.00
2022-08-11T15:31:50.185Z,101212.19
2022-08-11T15:35:03.593Z,101212.69
2022-08-11T15:37:58.373Z,101202.06
2022-08-11T15:41:07.770Z,101214.81
2022-08-11T15:44:14.909Z,101211.41
2022-08-11T15:47:05.329Z,101199.94
2022-08-11T15:50:10.894Z,101199.72
2022-08-11T15:53:07.713Z,101203.41
2022-08-11T15:55:56.265Z,101196.72
2022-08-11T15:59:40.963Z,101192.25
2022-08-11T16:02:35.549Z,101186.06
2022-08-11T16:05:25.091Z,101184.78
2022-08-11T16:08:33.122Z,101179.84
2022-08-11T16:11:22.254Z,101180.66
2022-08-11T16:14:30.649Z,101178.78
2022-08-11T16:17:19.961Z,101174.94
2022-08-11T16:20:09.196Z,101170.28
2022-08-11T16:23:02.441Z,101170.69
2022-08-11T16:27:03.085Z,101176.88
2022-08-11T16:29:00.604Z,101172.13
2022-08-11T16:32:09.339Z,101165.09
2022-08-11T16:35:27.957Z,101172.44
2022-08-11T16:38:35.740Z,101161.09
2022-08-11T16:41:44.391Z,101172.78
2022-08-11T16:44:51.645Z,101167.34
2022-08-11T16:48:02.804Z,101167.22
2022-08-11T16:50:48.926Z,101159.41
2022-08-11T16:53:54.908Z,101155.53
2022-08-11T16:56:52.572Z,101149.81
2022-08-11T16:59:39.921Z,101161.00
2022-08-11T17:02:53.741Z,101153.94
2022-08-11T17:06:18.996Z,101144.19
2022-08-11T17:09:27.777Z,101143.38
2022-08-11T17:12:34.448Z,101151.22
2022-08-11T17:15:42.423Z,101137.34
2022-08-11T17:18:40.778Z,101145.78
2022-08-11T17:21:58.580Z,101142.53
2022-08-11T17:24:47.414Z,101137.00
2022-08-11T17:27:35.552Z,101129.34
2022-08-11T17:30:43.586Z,101132.72
2022-08-11T17:33:51.734Z,101132.78
2022-08-11T17:36:45.072Z,101133.88
2022-08-11T17:39:33.631Z,101135.88
2022-08-11T17:42:41.698Z,101140.09
2022-08-11T17:45:48.701Z,101137.66
2022-08-11T17:48:47.683Z,101141.06
2022-08-11T17:51:57.254Z,101141.97
2022-08-11T17:55:06.117Z,101139.03
2022-08-11T17:58:15.504Z,101144.94
2022-08-11T18:01:09.412Z,101139.97
2022-08-11T18:03:58.804Z,101137.22
2022-08-11T18:06:47.751Z,101140.06
2022-08-11T18:09:53.485Z,101142.84
2022-08-11T18:13:00.509Z,101145.16
2022-08-11T18:16:06.270Z,101148.56
2022-08-11T18:19:12.842Z,101153.09
2022-08-11T18:22:28.041Z,101146.50
2022-08-11T18:25:43.275Z,101154.34
2022-08-11T18:28:58.094Z,101153.84
2022-08-11T18:32:08.402Z,101156.16
2022-08-11T18:35:16.474Z,101155.38
2022-08-11T18:38:25.289Z,101156.50
2022-08-11T18:41:33.369Z,101155.72
2022-08-11T18:44:44.414Z,101154.66
2022-08-11T18:47:53.352Z,101163.88
2022-08-11T18:51:29.950Z,101150.34
2022-08-11T18:54:34.350Z,101158.41
2022-08-11T18:57:49.778Z,101160.66
2022-08-11T19:01:04.876Z,101161.22
2022-08-11T19:04:17.272Z,101170.44
2022-08-11T19:07:27.847Z,101168.25
2022-08-11T19:10:34.540Z,101164.63
2022-08-11T19:13:43.657Z,101180.47
2022-08-11T19:16:52.549Z,101181.06
2022-08-11T19:19:59.750Z,101180.75
2022-08-11T19:23:07.913Z,101190.19
2022-08-11T19:26:15.632Z,101199.09
2022-08-11T19:30:12.489Z,101202.97
2022-08-11T19:32:49.978Z,101207.13
2022-08-11T19:35:56.453Z,101206.00
2022-08-11T19:39:03.187Z,101226.22
2022-08-11T19:42:09.610Z,101222.09
2022-08-11T19:45:18.198Z,101218.16
2022-08-11T19:48:32.542Z,101217.56
2022-08-11T19:51:38.790Z,101224.50
2022-08-11T19:54:48.802Z,101224.22
2022-08-11T19:57:56.730Z,101227.53
2022-08-11T20:01:03.092Z,101229.44
2022-08-11T20:04:09.176Z,101223.03
2022-08-11T20:07:16.149Z,101224.69
2022-08-11T20:10:25.780Z,101227.97
2022-08-11T20:13:32.914Z,101226.81
2022-08-11T20:16:40.514Z,101226.78
2022-08-11T20:19:55.587Z,101230.63
2022-08-11T20:23:05.478Z,101235.63
2022-08-11T20:26:30.289Z,101238.06
2022-08-11T20:29:45.429Z,101244.41
2022-08-11T20:32:51.835Z,101241.59
2022-08-11T20:35:58.136Z,101240.47
2022-08-11T20:39:05.156Z,101245.41
2022-08-11T20:42:12.337Z,101234.59
2022-08-11T20:45:23.459Z,101233.69
2022-08-11T20:48:30.117Z,101239.75
2022-08-11T20:51:38.799Z,101234.22
2022-08-11T20:54:46.901Z,101243.03
2022-08-11T20:58:04.088Z,101237.41
2022-08-11T21:01:16.233Z,101247.34
2022-08-11T21:04:26.569Z,101243.97
2022-08-11T21:07:35.045Z,101249.22
2022-08-11T21:10:50.531Z,101246.13
2022-08-11T21:13:59.263Z,101251.63
2022-08-11T21:17:27.532Z,101244.13
2022-08-11T21:20:34.872Z,101244.81
2022-08-11T21:23:43.171Z,101245.34
2022-08-11T21:26:51.343Z,101255.81
2022-08-11T21:29:58.231Z,101257.44
2022-08-11T21:33:04.570Z,101251.88
2022-08-11T21:36:10.644Z,101252.03
2022-08-11T21:39:16.742Z,101256.94
2022-08-11T21:42:25.420Z,101257.97
2022-08-11T21:45:32.584Z,101246.63
2022-08-11T21:48:38.958Z,101246.81
2022-08-11T21:51:45.137Z,101249.03
2022-08-11T21:54:51.298Z,101251.69
2022-08-11T21:57:58.477Z,101254.50
2022-08-11T22:01:04.644Z,101254.22
2022-08-11T22:04:10.575Z,101256.78
2022-08-11T22:07:17.666Z,101265.81
2022-08-11T22:10:41.025Z,101256.81
2022-08-11T22:14:02.973Z,101260.81
2022-08-11T22:17:13.910Z,101265.19
2022-08-11T22:20:20.562Z,101248.47
2022-08-11T22:23:30.604Z,101262.50
2022-08-11T22:26:47.405Z,101256.50
2022-08-11T22:29:53.549Z,101253.13
2022-08-11T22:33:00.113Z,101260.00
2022-08-11T22:36:07.614Z,101258.91
2022-08-11T22:39:16.911Z,101266.88
2022-08-11T22:42:24.214Z,101260.66
2022-08-11T22:45:39.941Z,101257.19
2022-08-11T22:48:48.809Z,101258.28
2022-08-11T22:51:56.148Z,101260.50
2022-08-11T22:55:04.304Z,101235.97
2022-08-11T22:58:12.535Z,101247.22
2022-08-11T23:01:19.228Z,101250.13
2022-08-11T23:04:25.912Z,101252.03
2022-08-11T23:07:51.453Z,101262.56
2022-08-11T23:10:58.669Z,101266.00
2022-08-11T23:14:05.273Z,101267.16
2022-08-11T23:17:11.747Z,101265.56
2022-08-11T23:20:24.741Z,101264.47
2022-08-11T23:23:34.734Z,101266.78
2022-08-11T23:26:42.949Z,101258.59
2022-08-11T23:29:52.989Z,101266.09
2022-08-11T23:33:03.542Z,101261.22
2022-08-11T23:36:10.027Z,101264.56
2022-08-11T23:39:35.958Z,101265.56
2022-08-11T23:42:41.862Z,101267.88
2022-08-11T23:45:52.017Z,101270.13
2022-08-11T23:48:57.942Z,101270.47
2022-08-11T23:52:05.221Z,101264.75
2022-08-11T23:55:11.345Z,101265.31
2022-08-11T23:58:17.318Z,101266.50
